ADDS METAR Data INFO
IDs: Format: Raw Decoded Include TAF

Data at: 0314 UTC 22 Apr 2018

KRPH 220255Z AUTO 34004KT 11/ A3008 RMK AO2 T0110 PWINO
KRPH 220235Z AUTO 34006KT 11/ A3008 RMK AO2 T0110 PWINO
KRPH 220215Z AUTO 33004KT 11/ A3007 RMK AO2 T0110 PWINO
KRPH 220155Z AUTO 33005KT 11/ A3006 RMK AO2 T0112 PWINO
KRPH 220135Z AUTO 34007KT 12/12 A3005 RMK AO2 T01200120 PWINO
KRPH 220115Z AUTO 34007KT 12/12 A3004 RMK AO2 T01230123 PWINO
KRPH 220055Z AUTO 34010G15KT 12/ A3003 RMK AO2 T0124 PWINO
KRPH 220035Z AUTO 34010G15KT 13/13 A3001 RMK AO2 T01250125 PWINO
KRPH 220015Z AUTO 35012G15KT 13/13 A3001 RMK AO2 T01260126 PWINO
KRPH 212355Z AUTO 35011G16KT 13/13 A3000 RMK AO2 T01260126 10210 20125 PWINO
KRPH 212335Z AUTO 35014G20KT 13/13 A2998 RMK AO2 T01260126 PWINO
KRPH 212315Z AUTO 35013G17KT 13/ A2997 RMK AO2 T0128 PWINO
KRPH 212255Z AUTO 34011G19KT 13/ A2996 RMK AO2 T0130 PWINO
KRPH 212235Z AUTO 34015G19KT 13/ A2996 RMK AO2 T0128 PWINO
KRPH 212215Z AUTO 35014G20KT 13/ A2994 RMK AO2 T0130 PWINO
KRPH 212155Z AUTO 35013G20KT 14/ A2993 RMK AO2 T0135 PWINO
KRPH 212135Z AUTO 34015G23KT 15/ A2993 RMK AO2 T0148 PWINO
KRPH 212115Z AUTO 34015G22KT 16/ A2991 RMK AO2 T0161 PWINO
KRPH 212055Z AUTO 34012G18KT 18/ A2988 RMK AO2 P0018 60018 T0180 PWINO
KRPH 212035Z AUTO 36004KT 18/ A2986 RMK AO2 P0018 T0177 PWINO
KRPH 212015Z AUTO 05004KT 18/ A2985 RMK AO2 P0017 T0180 PWINO
KRPH 211955Z AUTO 00000KT 20/16 A2986 RMK AO2 T01960160 PWINO
KRPH 211935Z AUTO 08003KT 20/16 A2987 RMK AO2 T02010156 PWINO
KRPH 211915Z AUTO 12006KT 21/15 A2986 RMK AO2 T02090154 PWINO
KRPH 211855Z AUTO 13006KT 20/16 A2988 RMK AO2 T02010161 PWINO
KRPH 211835Z AUTO 10008KT 19/19 A2987 RMK AO2 T01850185 PWINO
KRPH 211815Z AUTO 03003KT 16/ A2991 RMK AO2 T0161 PWINO
KRPH 211755Z AUTO 00000KT 16/ A2993 RMK AO2 60001 T0159 10160 20115 PWINO
KRPH 211735Z AUTO 00000KT 16/ A2992 RMK AO2 T0155 PWINO
KRPH 211715Z AUTO 12005KT 16/ A2991 RMK AO2 T0156 PWINO
KRPH 211655Z AUTO 12005KT 15/ A2992 RMK AO2 T0150 PWINO
KRPH 211635Z AUTO 13005KT 14/ A2993 RMK AO2 T0140 PWINO
KRPH 211615Z AUTO 14006KT 14/ A2993 RMK AO2 T0135 PWINO
KRPH 211555Z AUTO 00000KT 13/ A2995 RMK AO2 T0131 PWINO
KRPH 211535Z AUTO 14004KT 13/ A2994 RMK AO2 T0130 PWINO
KRPH 211515Z AUTO 13005KT 13/ A2993 RMK AO2 T0126 PWINO
KRPH 211455Z AUTO 12004KT 12/ A2994 RMK AO2 P0002 60003 T0124 PWINO
KRPH 211435Z AUTO 12005KT 12/ A2993 RMK AO2 P0002 T0122 PWINO
KRPH 211415Z AUTO 11004KT 12/ A2994 RMK AO2 P0002 T0120 PWINO
KRPH 211355Z AUTO 11003KT 12/ A2994 RMK AO2 P0004 T0120 PWINO
KRPH 211335Z AUTO 12004KT 12/ A2995 RMK AO2 P0003 T0120 PWINO
KRPH 211315Z AUTO 13006KT 12/ A2994 RMK AO2 P0001 T0119 PWINO
KRPH 211255Z AUTO 13005KT 12/ A2994 RMK AO2 P0012 T0118 PWINO
KRPH 211235Z AUTO 14003KT 12/ A2995 RMK AO2 P0011 T0117 PWINO
KRPH 211215Z AUTO 13004KT 12/ A2995 RMK AO2 P0009 T0116 PWINO
KRPH 211155Z AUTO 00000KT 12/ A2995 RMK AO2 P0002 60002 70002 T0116 10155 20115 PWINO
KRPH 211135Z AUTO 11006KT 12/ A2993 RMK AO2 P0002 T0115 PWINO
KRPH 211115Z AUTO 24004KT 12/ A2996 RMK AO2 P0001 T0115 PWINO
KRPH 211050Z AUTO 14010KT 12/ A2993 RMK AO2 T0116 PWINO
KRPH 211035Z AUTO 15007G17KT 120V180 12/10 A2993 RMK AO2 T01210096 PWINO
KRPH 211015Z AUTO 13011G17KT 12/09 A2993 RMK AO2 T01220093 PWINO
KRPH 210955Z AUTO 13010G19KT 12/09 A2993 RMK AO2 T01220092 PWINO
KRPH 210935Z AUTO 13011G18KT 12/09 A2993 RMK AO2 T01220091 PWINO
KRPH 210915Z AUTO 13012G20KT 12/09 A2995 RMK AO2 T01220088 PWINO
KRPH 210855Z AUTO 13008G18KT 13/08 A2996 RMK AO2 T01320081 PWINO
KRPH 210835Z AUTO 13013G20KT 13/08 A2997 RMK AO2 T01320080 PWINO
KRPH 210815Z AUTO 14013G21KT 13/08 A2998 RMK AO2 T01310082 PWINO
KRPH 210755Z AUTO 14009G20KT 15/07 A2999 RMK AO2 T01450070 PWINO
KRPH 210735Z AUTO 13012G17KT 15/07 A2999 RMK AO2 T01470065 PWINO
KRPH 210715Z AUTO 13010G17KT 15/06 A3001 RMK AO2 T01480062 PWINO
KRPH 210655Z AUTO 14007KT 15/06 A3003 RMK AO2 T01500061 PWINO
KRPH 210635Z AUTO 12010G18KT 15/06 A3002 RMK AO2 T01510061 PWINO
KRPH 210615Z AUTO 13010G16KT 15/06 A3002 RMK AO2 T01530061 PWINO
KRPH 210555Z AUTO 12011G20KT 16/06 A3001 RMK AO2 T01550062 10198 20155 402130067 PWINO
KRPH 210535Z AUTO 11014G21KT 16/06 A2998 RMK AO2 T01550062 PWINO
KRPH 210515Z AUTO 12013G21KT 16/06 A2998 RMK AO2 T01570064 PWINO
KRPH 210455Z AUTO 12009G21KT 16/06 A2999 RMK AO2 T01590063 PWINO
KRPH 210435Z AUTO 12011G17KT 16/06 A3001 RMK AO2 T01610062 PWINO
KRPH 210415Z AUTO 13011G17KT 17/06 A3001 RMK AO2 T01650062 PWINO
KRPH 210355Z AUTO 13013G21KT 17/06 A2999 RMK AO2 T01670060 PWINO
KRPH 210335Z AUTO 13011G19KT 17/06 A2999 RMK AO2 T01700060 PWINO
KRPH 210315Z AUTO 13008G18KT 17/06 A3000 RMK AO2 T01700058 PWINO
KRPH 210255Z AUTO 12013G18KT 17/06 A2999 RMK AO2 T01700055 PWINO
KRPH 210235Z AUTO 12010G16KT 100V160 17/05 A2999 RMK AO2 T01710053 PWINO
KRPH 210215Z AUTO 13013G18KT 18/05 A2999 RMK AO2 T01750050 PWINO
KRPH 210155Z AUTO 13012G18KT 18/05 A2998 RMK AO2 T01760048 PWINO
KRPH 210135Z AUTO 13010G16KT 18/05 A2997 RMK AO2 T01770047 PWINO
KRPH 210115Z AUTO 12011G18KT 090V150 18/05 A2996 RMK AO2 T01790045 PWINO
KRPH 210055Z AUTO 12012G18KT 18/04 A2996 RMK AO2 T01830042 PWINO
KRPH 210035Z AUTO 12009G21KT 19/04 A2997 RMK AO2 T01880039 PWINO
KRPH 210015Z AUTO 12013G21KT 20/04 A2996 RMK AO2 T01950040 PWINO
KRPH 202355Z AUTO 12016G21KT 20/04 A2996 RMK AO2 T01990040 10213 20179 PWINO
KRPH 202335Z AUTO 13011G19KT 20/04 A2998 RMK AO2 T02040041 PWINO
KRPH 202315Z AUTO 12012G20KT 21/04 A2999 RMK AO2 T02050041 PWINO
KRPH 202255Z AUTO 12014G22KT 21/04 A3001 RMK AO2 T02090041 PWINO
KRPH 202235Z AUTO 12013G21KT 21/04 A3002 RMK AO2 T02100040 PWINO
KRPH 202215Z AUTO 12013G18KT 21/04 A3002 RMK AO2 T02120040 PWINO
KRPH 202155Z AUTO 11012G18KT 21/04 A3003 RMK AO2 T02110039 PWINO
KRPH 202135Z AUTO 13014G21KT 21/03 A3004 RMK AO2 T02090034 PWINO
KRPH 202115Z AUTO 11013G21KT 21/04 A3005 RMK AO2 T02100036 PWINO
KRPH 202055Z AUTO 14012G22KT 20/03 A3007 RMK AO2 T02010034 PWINO
KRPH 202035Z AUTO 11009G20KT 090V160 21/04 A3008 RMK AO2 T02060037 PWINO
KRPH 202015Z AUTO 14014G23KT 21/04 A3009 RMK AO2 T02070037 PWINO
KRPH 201955Z AUTO 14011G16KT 110V170 21/04 A3010 RMK AO2 T02060041 PWINO
KRPH 201935Z AUTO 13008G17KT 20/04 A3012 RMK AO2 T01960037 PWINO
KRPH 201915Z AUTO 12012G19KT 19/04 A3013 RMK AO2 T01930035 PWINO
KRPH 201855Z AUTO 11011G17KT 19/04 A3013 RMK AO2 T01910037 PWINO
KRPH 201835Z AUTO 12013G21KT 19/04 A3015 RMK AO2 T01870037 PWINO
KRPH 201815Z AUTO 11012G22KT 18/04 A3017 RMK AO2 T01790035 PWINO
KRPH 201755Z AUTO 13015G23KT 18/04 A3017 RMK AO2 T01810035 10183 20090 PWINO
KRPH 201735Z AUTO 13013G20KT 18/04 A3019 RMK AO2 T01810036 PWINO
KRPH 201715Z AUTO 13014G21KT 17/04 A3020 RMK AO2 T01740036 PWINO
KRPH 201655Z AUTO 10013G23KT 17/04 A3021 RMK AO2 T01680035 PWINO
KRPH 201635Z AUTO 11013G19KT 17/04 A3022 RMK AO2 T01680038 PWINO
KRPH 201615Z AUTO 11015G21KT 16/04 A3023 RMK AO2 T01630040 PWINO
KRPH 201555Z AUTO 11011G18KT 080V140 16/04 A3024 RMK AO2 T01590044 PWINO
KRPH 201535Z AUTO 11014G19KT 15/04 A3025 RMK AO2 T01500043 PWINO
KRPH 201515Z AUTO 14014G20KT 15/04 A3024 RMK AO2 T01450042 PWINO